Time;durP1;ratioP1;P1;durP2;ratioP2;P2;SDS_P1;SDS_P2;PMS_P1;PMS_P2;Temp;Humidity;BMP_temperature;BMP_pressure;BME280_temperature;BME280_humidity;BME280_pressure;Samples;Min_cycle;Max_cycle;Signal;HPM_P1;HPM_P2
2021/01/14 00:01:09;;;;;;;1.50;0.70;;;;;;;3.45;84.20;99329.53;2282317;67;21192;-76
2021/01/14 00:04:11;;;;;;;0.74;0.60;;;;;;;3.35;84.23;99335.25;2283312;70;20297;-77
2021/01/14 00:07:13;;;;;;;0.50;0.50;;;;;;;3.28;84.23;99336.81;2283418;70;20285;-76
2021/01/14 00:10:16;;;;;;;1.48;0.80;;;;;;;3.17;84.78;99332.25;2284269;70;20313;-77
2021/01/14 00:13:18;;;;;;;1.25;0.52;;;;;;;3.13;85.02;99330.47;2283256;70;20337;-76
2021/01/14 00:16:19;;;;;;;0.60;0.60;;;;;;;3.06;85.06;99333.72;2283783;67;20649;-77
2021/01/14 00:19:21;;;;;;;0.70;0.70;;;;;;;3.00;85.39;99336.97;2283497;70;20319;-77
2021/01/14 00:22:23;;;;;;;2.28;0.89;;;;;;;2.92;85.29;99326.53;2283254;70;20332;-77
2021/01/14 00:25:24;;;;;;;0.65;0.60;;;;;;;2.88;85.43;99324.75;2283646;70;20313;-77
2021/01/14 00:28:27;;;;;;;1.56;0.80;;;;;;;2.86;85.52;99339.19;2282289;69;20301;-77
2021/01/14 00:31:29;;;;;;;0.88;0.60;;;;;;;2.84;85.69;99333.16;2280763;67;25746;-77
2021/01/14 00:34:31;;;;;;;2.25;0.70;;;;;;;2.83;85.80;99325.44;2278967;69;20331;-76
2021/01/14 00:37:51;;;;;;;0.99;0.60;;;;;;;2.81;85.88;99333.09;2282320;70;20315;-76
2021/01/14 00:40:53;;;;;;;0.50;0.50;;;;;;;2.79;85.96;99328.75;2282335;70;20352;-76
2021/01/14 00:43:55;;;;;;;0.57;0.51;;;;;;;2.76;85.90;99326.13;2282450;70;20335;-76
2021/01/14 00:46:57;;;;;;;0.50;0.50;;;;;;;2.70;85.97;99320.00;2282217;67;34034;-75
2021/01/14 00:49:59;;;;;;;0.76;0.52;;;;;;;2.67;86.03;99319.03;2282296;70;20744;-76
2021/01/14 00:53:01;;;;;;;0.70;0.70;;;;;;;2.65;86.34;99325.81;2282443;70;21385;-76
2021/01/14 00:56:02;;;;;;;0.50;0.49;;;;;;;2.65;86.45;99330.97;2282626;69;21190;-75
2021/01/14 00:59:05;;;;;;;0.76;0.66;;;;;;;2.65;86.58;99342.06;2282274;70;20301;-75
2021/01/14 01:02:07;;;;;;;0.54;0.50;;;;;;;2.62;86.58;99329.19;2281728;67;29512;-75
2021/01/14 01:05:10;;;;;;;0.68;0.54;;;;;;;2.59;86.65;99335.94;2281925;70;20363;-75
2021/01/14 01:08:13;;;;;;;1.51;0.70;;;;;;;2.54;86.83;99340.94;2281467;70;20421;-75
2021/01/14 01:11:15;;;;;;;0.54;0.52;;;;;;;2.49;87.12;99342.50;2282716;70;20484;-75
2021/01/14 01:14:17;;;;;;;0.52;0.52;;;;;;;2.48;87.35;99334.75;2281628;70;20343;-76
2021/01/14 01:17:18;;;;;;;0.60;0.40;;;;;;;2.46;87.47;99337.28;2281661;67;26720;-76
2021/01/14 01:20:20;;;;;;;1.64;0.99;;;;;;;2.46;87.65;99339.00;2282388;70;20309;-75
2021/01/14 01:23:22;;;;;;;3.28;1.44;;;;;;;2.44;87.78;99336.38;2282395;69;20306;-76
2021/01/14 01:26:23;;;;;;;2.08;1.39;;;;;;;2.41;87.93;99347.44;2282550;70;20675;-75
2021/01/14 01:29:25;;;;;;;1.55;1.00;;;;;;;2.39;88.00;99343.09;2283096;70;20356;-76
2021/01/14 01:32:27;;;;;;;2.50;0.71;;;;;;;2.37;88.14;99344.75;2283205;67;23930;-76
2021/01/14 01:35:28;;;;;;;0.80;0.70;;;;;;;2.33;88.28;99341.22;2289858;69;20316;-75
2021/01/14 01:38:30;;;;;;;1.58;0.65;;;;;;;2.29;88.34;99354.75;2291535;69;20310;-75
2021/01/14 01:41:32;;;;;;;0.73;0.70;;;;;;;2.29;88.60;99361.59;2288954;69;20742;-75
2021/01/14 01:44:33;;;;;;;3.19;1.69;;;;;;;2.28;88.74;99364.97;2288800;69;20304;-75
2021/01/14 01:47:36;;;;;;;3.55;1.73;;;;;;;2.28;88.85;99373.53;2288007;67;25482;-75
2021/01/14 01:50:39;;;;;;;3.19;1.10;;;;;;;2.28;88.90;99373.53;2289364;69;20321;-75
2021/01/14 01:53:41;;;;;;;1.80;1.33;;;;;;;2.29;88.97;99382.06;2288654;69;20289;-75
2021/01/14 01:56:42;;;;;;;1.48;0.89;;;;;;;2.26;88.98;99384.56;2289345;69;20300;-75
2021/01/14 01:59:44;;;;;;;1.16;0.95;;;;;;;2.28;89.07;99380.34;2289357;69;20322;-75
2021/01/14 02:02:47;;;;;;;1.39;0.80;;;;;;;2.26;89.13;99382.88;2288678;67;29271;-76
2021/01/14 02:05:49;;;;;;;0.82;0.77;;;;;;;2.26;89.13;99385.44;2288488;69;20357;-76
2021/01/14 02:08:58;;;;;;;0.70;0.70;;;;;;;2.25;89.13;99381.13;2289203;69;20300;-76
2021/01/14 02:12:04;;;;;;;1.69;0.70;;;;;;;2.24;89.24;99387.06;2287891;69;20318;-76
2021/01/14 02:15:07;;;;;;;0.95;0.70;;;;;;;2.22;89.24;99365.69;2287467;69;21160;-76
2021/01/14 02:18:09;;;;;;;2.25;0.60;;;;;;;2.22;89.17;99367.38;2287990;67;21026;-76
2021/01/14 02:21:14;;;;;;;0.60;0.60;;;;;;;2.21;89.18;99365.63;2288070;69;20281;-76
2021/01/14 02:24:25;;;;;;;1.13;0.84;;;;;;;2.19;89.26;99373.28;2288316;69;20370;-76
2021/01/14 02:27:27;;;;;;;1.25;0.77;;;;;;;2.16;89.25;99372.34;2288412;69;20357;-76
2021/01/14 02:30:30;;;;;;;1.04;0.68;;;;;;;2.12;89.27;99379.91;2287479;67;37721;-76
2021/01/14 02:33:32;;;;;;;0.71;0.71;;;;;;;2.11;89.42;99378.16;2287956;69;20301;-75
2021/01/14 02:36:34;;;;;;;0.81;0.74;;;;;;;2.13;89.50;99380.75;2288002;69;20172;-75
2021/01/14 02:39:36;;;;;;;1.13;0.76;;;;;;;2.12;89.50;99394.41;2288770;69;20312;-76
2021/01/14 02:42:39;;;;;;;0.91;0.60;;;;;;;2.11;89.56;99387.53;2287669;69;20158;-75
2021/01/14 02:45:40;;;;;;;1.23;0.60;;;;;;;2.09;89.47;99397.75;2286956;67;20758;-75
2021/01/14 02:48:49;;;;;;;1.36;0.70;;;;;;;2.07;89.51;99381.47;2288376;69;20280;-76
2021/01/14 02:51:55;;;;;;;0.81;0.80;;;;;;;2.05;89.59;99388.25;2288112;69;20382;-76
2021/01/14 02:54:58;;;;;;;0.76;0.62;;;;;;;2.08;89.72;99377.22;2288226;69;20652;-76
2021/01/14 02:58:00;;;;;;;1.00;0.90;;;;;;;2.08;89.61;99383.19;2288055;69;20166;-75
2021/01/14 03:01:02;;;;;;;0.93;0.70;;;;;;;2.08;89.71;99382.34;2286846;67;23593;-75
2021/01/14 03:04:04;;;;;;;2.24;0.90;;;;;;;2.09;89.76;99391.75;2288211;69;20339;-76
2021/01/14 03:07:05;;;;;;;1.02;0.94;;;;;;;2.05;89.66;99384.81;2287923;69;20898;-75
2021/01/14 03:10:08;;;;;;;1.10;0.90;;;;;;;2.07;89.75;99384.03;2288972;69;20304;-76
2021/01/14 03:13:10;;;;;;;0.98;0.90;;;;;;;2.07;89.70;99385.72;2292003;69;20310;-76
2021/01/14 03:16:11;;;;;;;1.21;0.84;;;;;;;2.05;89.61;99390.81;2287158;67;21193;-76
2021/01/14 03:19:13;;;;;;;1.27;0.90;;;;;;;2.03;89.76;99384.78;2288234;69;20640;-75
2021/01/14 03:22:15;;;;;;;1.02;0.93;;;;;;;2.04;89.77;99386.50;2287259;69;20309;-75
2021/01/14 03:25:16;;;;;;;0.82;0.82;;;;;;;2.03;89.81;99407.81;2287425;69;20305;-75
2021/01/14 03:28:18;;;;;;;1.16;0.98;;;;;;;2.05;89.90;99411.28;2288508;69;20765;-75
2021/01/14 03:31:20;;;;;;;1.03;1.00;;;;;;;2.07;89.89;99408.78;2287154;67;26359;-75
2021/01/14 03:34:22;;;;;;;1.39;1.15;;;;;;;2.11;89.84;99402.91;2287855;69;20186;-75
2021/01/14 03:37:24;;;;;;;1.56;1.33;;;;;;;2.09;89.72;99409.69;2288710;69;20318;-75
2021/01/14 03:40:25;;;;;;;1.38;1.09;;;;;;;2.08;89.68;99415.63;2289002;69;20491;-76
2021/01/14 03:43:27;;;;;;;1.92;1.30;;;;;;;2.07;89.74;99416.44;2287770;69;20166;-76
2021/01/14 03:46:28;;;;;;;2.90;1.24;;;;;;;2.07;89.76;99404.50;2287037;67;65385;-76
2021/01/14 03:49:30;;;;;;;1.98;1.79;;;;;;;2.05;89.75;99407.84;2287106;69;20332;-76
2021/01/14 03:52:32;;;;;;;1.94;1.36;;;;;;;2.03;89.57;99412.06;2287551;69;21147;-76
2021/01/14 03:55:34;;;;;;;1.63;1.08;;;;;;;2.01;89.69;99408.59;2287605;69;20196;-76
2021/01/14 03:58:35;;;;;;;1.54;1.17;;;;;;;1.98;89.68;99411.94;2288814;69;20811;-76
2021/01/14 04:01:37;;;;;;;2.38;1.42;;;;;;;1.97;89.76;99409.31;2288239;67;26786;-76
2021/01/14 04:04:40;;;;;;;2.57;1.80;;;;;;;1.98;89.69;99411.06;2288650;69;21258;-76
2021/01/14 04:07:42;;;;;;;1.45;1.21;;;;;;;1.96;89.69;99405.00;2289806;69;20600;-76
2021/01/14 04:10:44;;;;;;;1.83;1.25;;;;;;;1.94;89.68;99394.72;2288432;69;20318;-76
2021/01/14 04:13:46;;;;;;;3.03;1.33;;;;;;;1.92;89.55;99406.63;2288413;69;20333;-76
2021/01/14 04:16:51;;;;;;;3.11;1.59;;;;;;;1.89;89.55;99403.09;2288094;67;22840;-77
2021/01/14 04:19:54;;;;;;;1.40;1.30;;;;;;;1.84;89.42;99405.53;2288606;69;20308;-78
2021/01/14 04:22:55;;;;;;;1.88;1.29;;;;;;;1.79;89.38;99407.94;2288447;69;20333;-77
2021/01/14 04:25:57;;;;;;;1.92;1.49;;;;;;;1.75;89.32;99402.69;2288138;69;20192;-77
2021/01/14 04:28:58;;;;;;;1.91;1.37;;;;;;;1.73;89.26;99405.19;2289162;69;20288;-78
2021/01/14 04:32:00;;;;;;;1.38;1.10;;;;;;;1.69;89.15;99405.06;2287969;67;23969;-77
2021/01/14 04:35:02;;;;;;;1.64;1.54;;;;;;;1.63;89.06;99415.97;2287924;69;21162;-77
2021/01/14 04:38:04;;;;;;;1.85;1.42;;;;;;;1.57;89.13;99408.09;2288920;69;20316;-77
2021/01/14 04:41:06;;;;;;;1.86;1.48;;;;;;;1.55;89.20;99411.44;2288966;69;20510;-77
2021/01/14 04:44:07;;;;;;;1.92;1.27;;;;;;;1.50;89.03;99411.28;2287955;69;20292;-78
2021/01/14 04:47:14;;;;;;;1.50;1.30;;;;;;;1.46;89.06;99419.69;2287619;67;25140;-78
2021/01/14 04:50:17;;;;;;;2.16;1.17;;;;;;;1.38;89.01;99416.88;2288927;69;20188;-78
2021/01/14 04:53:20;;;;;;;1.59;1.33;;;;;;;1.31;89.00;99414.06;2293912;69;20194;-79
2021/01/14 04:56:26;;;;;;;2.59;1.50;;;;;;;1.22;89.00;99409.50;2290670;69;20154;-79
2021/01/14 04:59:32;;;;;;;1.46;1.23;;;;;;;1.17;89.11;99408.50;2289956;69;20166;-79
2021/01/14 05:02:49;;;;;;;2.82;1.48;;;;;;;1.16;89.34;99407.63;2288598;67;23185;-79
2021/01/14 05:05:52;;;;;;;1.82;1.63;;;;;;;1.10;89.27;99404.03;2290810;69;20216;-79
2021/01/14 05:09:04;;;;;;;2.93;1.44;;;;;;;1.04;89.31;99402.09;2289343;69;20150;-79
2021/01/14 05:12:07;;;;;;;2.96;1.74;;;;;;;1.04;89.58;99401.22;2285646;69;20142;-78
2021/01/14 05:15:10;;;;;;;2.59;1.62;;;;;;;1.06;89.63;99392.78;2288657;69;20183;-78
2021/01/14 05:18:12;;;;;;;1.93;1.59;;;;;;;1.02;89.51;99406.31;2290009;67;34490;-78
2021/01/14 05:21:14;;;;;;;2.40;1.76;;;;;;;1.00;89.52;99404.50;2290625;69;20253;-78
2021/01/14 05:24:16;;;;;;;2.09;1.58;;;;;;;1.00;89.70;99401.97;2289544;69;20598;-78
2021/01/14 05:27:21;;;;;;;1.91;1.44;;;;;;;0.96;89.66;99407.78;2290782;69;20184;-78
2021/01/14 05:30:25;;;;;;;2.27;1.97;;;;;;;0.92;89.69;99408.50;2288801;67;24397;-78
2021/01/14 05:33:27;;;;;;;2.33;1.88;;;;;;;0.96;89.93;99413.78;2289863;69;20717;-78
2021/01/14 05:36:48;;;;;;;1.79;1.69;;;;;;;0.89;89.72;99412.69;2289698;69;20187;-79
2021/01/14 05:39:50;;;;;;;1.69;1.58;;;;;;;0.93;89.97;99410.25;2299269;69;20332;-81
2021/01/14 05:43:02;;;;;;;3.75;1.95;;;;;;;0.94;90.03;99423.09;2302092;69;20370;-81
2021/01/14 05:46:14;;;;;;;3.00;1.76;;;;;;;0.98;90.16;99424.91;2303768;67;22695;-81
2021/01/14 05:49:16;;;;;;;2.32;1.71;;;;;;;0.93;89.96;99423.91;2302807;69;20163;-81
2021/01/14 05:52:21;;;;;;;1.84;1.71;;;;;;;0.87;89.85;99416.00;2300256;69;20184;-81
2021/01/14 05:55:30;;;;;;;2.10;1.80;;;;;;;0.84;89.91;99414.22;2300884;69;20319;-80
2021/01/14 05:58:36;;;;;;;1.73;1.63;;;;;;;0.87;90.15;99418.56;2301411;69;20310;-82
2021/01/14 06:02:03;;;;;;;1.84;1.67;;;;;;;0.84;89.86;99424.44;2288832;69;993303;-82
2021/01/14 06:05:25;;;;;;;2.14;1.94;;;;;;;0.81;89.89;99426.91;2301541;69;20355;-81
2021/01/14 06:08:28;;;;;;;1.98;1.67;;;;;;;0.77;89.89;99432.72;2295238;69;20310;-79
2021/01/14 06:11:29;;;;;;;2.40;2.20;;;;;;;0.80;90.19;99431.94;2288743;69;20194;-78
2021/01/14 06:14:31;;;;;;;2.19;1.99;;;;;;;0.81;90.11;99434.56;2288763;69;20336;-78
2021/01/14 06:17:33;;;;;;;2.14;1.93;;;;;;;0.81;90.28;99428.56;2287322;67;30092;-78
2021/01/14 06:20:51;;;;;;;3.18;2.12;;;;;;;0.80;90.24;99435.38;2289220;69;20167;-78
2021/01/14 06:23:53;;;;;;;2.35;2.15;;;;;;;0.85;90.44;99441.50;2288603;69;20836;-78
2021/01/14 06:27:04;;;;;;;3.92;2.75;;;;;;;0.95;90.71;99446.94;2288285;69;20333;-78
2021/01/14 06:30:09;;;;;;;2.84;2.31;;;;;;;0.93;90.26;99451.16;2287978;69;20726;-77
2021/01/14 06:33:15;;;;;;;4.66;2.64;;;;;;;0.93;90.43;99451.16;2286270;67;23708;-77
2021/01/14 06:36:19;;;;;;;3.36;2.88;;;;;;;0.90;90.14;99457.03;2287242;69;20309;-78
2021/01/14 06:39:24;;;;;;;4.51;2.83;;;;;;;0.94;90.48;99458.88;2287306;69;20196;-78
2021/01/14 06:42:36;;;;;;;3.76;3.15;;;;;;;0.97;90.28;99464.06;2287663;69;20276;-82
2021/01/14 06:45:55;;;;;;;3.56;3.20;;;;;;;1.03;90.41;99465.97;2295339;69;21499;-77
2021/01/14 06:49:08;;;;;;;4.71;3.61;;;;;;;0.99;90.00;99474.34;2286772;69;20330;-77
2021/01/14 06:52:14;;;;;;;3.75;2.94;;;;;;;0.95;90.05;99478.50;2286331;69;20195;-78
2021/01/14 06:55:18;;;;;;;4.38;3.54;;;;;;;0.93;89.86;99477.56;2287530;69;20800;-77
2021/01/14 06:58:21;;;;;;;3.69;3.30;;;;;;;0.87;89.74;99475.66;2287355;69;20192;-77
2021/01/14 07:01:23;;;;;;;3.30;3.00;;;;;;;0.83;89.71;99476.38;2286780;67;26957;-77
2021/01/14 07:04:37;;;;;;;4.05;3.59;;;;;;;0.78;89.74;99480.47;2286752;69;20312;-76
2021/01/14 07:07:46;;;;;;;4.40;3.99;;;;;;;0.85;90.15;99481.53;2294521;69;20288;-81
2021/01/14 07:11:18;;;;;;;4.36;3.60;;;;;;;0.90;90.08;99475.78;2294472;69;20962;-80
2021/01/14 07:14:25;;;;;;;4.33;3.43;;;;;;;0.87;89.90;99482.44;2298031;69;20203;-84
2021/01/14 07:17:47;;;;;;;3.91;3.41;;;;;;;0.87;90.04;99485.88;2272260;67;23996;-78
2021/01/14 07:20:48;;;;;;;3.37;2.83;;;;;;;0.84;89.85;99492.56;2273748;70;21187;-79
2021/01/14 07:23:56;;;;;;;4.31;3.12;;;;;;;0.83;89.90;99491.69;2274221;70;20608;-76
2021/01/14 07:27:00;;;;;;;3.81;3.47;;;;;;;0.84;89.92;99503.66;2274465;70;20201;-80
2021/01/14 07:30:06;;;;;;;4.65;3.58;;;;;;;0.82;89.91;99501.88;2274386;70;20298;-77
2021/01/14 07:33:09;;;;;;;3.89;3.39;;;;;;;0.81;89.98;99503.56;2267396;67;23196;-77
2021/01/14 07:36:23;;;;;;;4.85;3.80;;;;;;;0.85;90.13;99502.84;2267497;70;20335;-81
2021/01/14 07:39:53;;;;;;;4.24;3.84;;;;;;;0.87;90.17;99502.91;2284467;70;21059;-78
2021/01/14 07:43:00;;;;;;;4.40;3.50;;;;;;;0.88;90.02;99517.41;2284059;70;20298;-75
2021/01/14 07:46:22;;;;;;;4.38;3.56;;;;;;;0.89;90.17;99517.47;2281950;67;22075;-76
2021/01/14 07:49:27;;;;;;;5.40;3.91;;;;;;;0.93;90.36;99513.38;2286535;70;20301;-79
2021/01/14 07:52:34;;;;;;;4.28;3.63;;;;;;;0.98;90.25;99516.06;2285160;70;20530;-75
2021/01/14 07:55:36;;;;;;;6.00;3.73;;;;;;;0.92;89.90;99520.97;2290161;70;20173;-82
2021/01/14 07:58:45;;;;;;;3.92;3.53;;;;;;;0.88;89.98;99518.28;2298831;70;20173;-83
2021/01/14 08:02:08;;;;;;;;;;;;;;;0.86;89.82;99517.38;2291994;67;48657;-79
2021/01/14 08:05:11;;;;;;;3.29;2.99;;;;;;;0.84;89.80;99520.69;2283102;70;20050;-78
2021/01/14 08:08:32;;;;;;;3.85;3.41;;;;;;;0.80;89.84;99516.28;2283864;70;20162;-79
2021/01/14 08:11:35;;;;;;;3.84;3.44;;;;;;;0.83;90.13;99517.25;2283072;70;20323;-80
2021/01/14 08:14:38;;;;;;;4.57;3.14;;;;;;;0.88;90.29;99520.84;2283660;70;20337;-79
2021/01/14 08:17:40;;;;;;;6.36;4.38;;;;;;;0.89;90.08;99516.59;2282527;67;20611;-78
2021/01/14 08:20:41;;;;;;;5.60;5.04;;;;;;;0.89;89.96;99521.72;2282785;70;21401;-78
2021/01/14 08:23:45;;;;;;;5.19;4.70;;;;;;;0.85;89.93;99528.41;2283327;70;20181;-79
2021/01/14 08:26:54;;;;;;;4.94;4.43;;;;;;;0.84;89.90;99528.34;2282265;70;20293;-78
2021/01/14 08:30:00;;;;;;;;;;;;;;;0.85;90.09;99530.09;2283712;70;20680;-78
2021/01/14 08:33:04;;;;;;;2.80;2.58;;;;;;;0.89;90.11;99529.38;2281727;67;20603;-78
2021/01/14 08:36:12;;;;;;;4.94;3.04;;;;;;;0.89;90.16;99537.91;2284697;70;20348;-77
2021/01/14 08:39:18;;;;;;;4.30;3.66;;;;;;;0.94;90.10;99539.78;2285687;70;20303;-80
2021/01/14 08:42:29;;;;;;;5.96;4.32;;;;;;;0.94;90.03;99534.69;2287738;70;20314;-79
2021/01/14 08:45:32;;;;;;;5.59;3.88;;;;;;;0.90;89.86;99533.72;2282371;67;26114;-80
2021/01/14 08:48:34;;;;;;;4.20;3.69;;;;;;;0.93;90.06;99538.94;2284238;70;20345;-79
2021/01/14 08:51:38;;;;;;;3.79;3.41;;;;;;;0.94;89.91;99538.09;2284980;70;20731;-79
2021/01/14 08:54:42;;;;;;;6.00;4.55;;;;;;;0.96;89.98;99551.81;2287225;70;20326;-81
2021/01/14 08:57:52;;;;;;;7.00;5.43;;;;;;;1.07;90.26;99550.50;2286438;70;20345;-80
2021/01/14 09:00:53;;;;;;;8.14;5.74;;;;;;;1.12;90.08;99560.91;2283545;67;20577;-80
2021/01/14 09:03:55;;;;;;;7.96;4.84;;;;;;;1.17;90.05;99572.16;2283860;70;20306;-79
2021/01/14 09:06:57;;;;;;;4.36;3.94;;;;;;;1.20;89.87;99574.81;2284093;70;20476;-79
2021/01/14 09:09:58;;;;;;;4.39;3.85;;;;;;;1.14;89.44;99574.63;2283522;70;20965;-79
2021/01/14 09:13:08;;;;;;;4.65;4.14;;;;;;;1.09;89.41;99578.69;2283416;70;20327;-79
2021/01/14 09:16:10;;;;;;;3.83;3.42;;;;;;;1.10;89.61;99576.19;2284871;68;28058;-80
2021/01/14 09:19:25;;;;;;;4.09;3.69;;;;;;;1.12;89.56;99573.69;2285252;70;20317;-81
2021/01/14 09:22:27;;;;;;;4.95;3.74;;;;;;;1.11;89.43;99574.50;2285199;70;20329;-80
2021/01/14 09:25:33;;;;;;;5.91;3.84;;;;;;;1.10;89.36;99581.31;2287245;70;20346;-80
2021/01/14 09:28:34;;;;;;;4.88;4.25;;;;;;;1.08;89.26;99577.84;2288476;70;20406;-80
2021/01/14 09:31:36;;;;;;;7.45;5.71;;;;;;;1.08;89.39;99585.50;2284384;67;20883;-80
2021/01/14 09:34:38;;;;;;;5.65;5.05;;;;;;;1.11;89.48;99580.50;2285893;70;20325;-80
2021/01/14 09:37:40;;;;;;;7.56;5.50;;;;;;;1.19;89.63;99585.88;2284815;70;20309;-80
2021/01/14 09:40:51;;;;;;;8.04;6.05;;;;;;;1.18;89.45;99591.81;2284740;70;20688;-80
2021/01/14 09:44:14;;;;;;;5.78;4.54;;;;;;;1.24;89.47;99594.56;2284158;70;20347;-79
2021/01/14 09:47:16;;;;;;;5.34;4.53;;;;;;;1.23;89.31;99597.94;2282529;67;44817;-79
2021/01/14 09:50:23;;;;;;;5.26;4.54;;;;;;;1.25;89.40;99609.09;2285883;70;20325;-77
2021/01/14 09:53:25;;;;;;;5.82;4.63;;;;;;;1.27;89.43;99610.03;2278315;70;20726;-79
2021/01/14 09:56:31;;;;;;;5.44;4.11;;;;;;;1.32;89.44;99607.66;2282962;70;20355;-78
2021/01/14 09:59:46;;;;;;;4.61;4.19;;;;;;;1.37;89.28;99624.03;2290695;70;20405;-80
2021/01/14 10:02:52;;;;;;;3.75;3.20;;;;;;;1.37;89.12;99631.69;2286926;67;25239;-79
2021/01/14 10:05:59;;;;;;;3.50;3.20;;;;;;;1.37;88.96;99636.81;2283096;70;21049;-79
2021/01/14 10:09:03;;;;;;;3.19;2.89;;;;;;;1.35;88.84;99644.44;2283158;70;20339;-79
2021/01/14 10:12:05;;;;;;;3.59;3.13;;;;;;;1.33;88.75;99657.97;2282710;70;20343;-79
2021/01/14 10:15:08;;;;;;;5.16;3.65;;;;;;;1.33;88.72;99660.53;2284607;70;20333;-80
2021/01/14 10:18:24;;;;;;;5.31;4.49;;;;;;;1.30;88.55;99655.31;2286470;67;32533;-80
2021/01/14 10:21:28;;;;;;;5.61;4.20;;;;;;;1.23;88.48;99653.34;2289916;70;20294;-80
2021/01/14 10:24:30;;;;;;;4.20;3.75;;;;;;;1.19;88.46;99644.69;2292831;70;20297;-81
2021/01/14 10:27:33;;;;;;;5.79;4.49;;;;;;;1.22;88.67;99644.78;2295036;70;20325;-81
2021/01/14 10:30:38;;;;;;;7.32;4.97;;;;;;;1.23;88.54;99633.75;2289306;67;62098;-79
2021/01/14 10:33:53;;;;;;;6.05;5.00;;;;;;;1.19;88.47;99626.78;2284015;70;21109;-80
2021/01/14 10:36:55;;;;;;;6.22;4.46;;;;;;;1.23;88.63;99622.66;2285965;70;20320;-80
2021/01/14 10:40:00;;;;;;;8.14;6.19;;;;;;;1.26;88.69;99636.44;2290861;70;20339;-81
2021/01/14 10:43:04;;;;;;;6.99;6.26;;;;;;;1.35;88.82;99633.31;2291616;70;20323;-80
2021/01/14 10:46:06;;;;;;;8.31;5.82;;;;;;;1.41;88.75;99628.41;2291555;67;27035;-80
2021/01/14 10:49:30;;;;;;;5.76;4.82;;;;;;;1.41;88.41;99623.31;2289655;70;20281;-80
2021/01/14 10:53:04;;;;;;;6.78;5.41;;;;;;;1.37;88.38;99630.00;2294857;69;20297;-81
2021/01/14 10:56:09;;;;;;;6.20;4.78;;;;;;;1.40;88.54;99619.00;2295824;70;20329;-81
2021/01/14 10:59:23;;;;;;;5.07;4.54;;;;;;;1.45;88.59;99617.50;2294896;70;20395;-81
2021/01/14 11:02:31;;;;;;;5.59;4.30;;;;;;;1.42;88.50;99617.38;2282894;69;949862;-81
2021/01/14 11:05:47;;;;;;;5.99;4.71;;;;;;;1.39;88.35;99615.56;2294631;70;20151;-80
2021/01/14 11:08:57;;;;;;;3.08;2.71;;;;;;;1.37;88.49;99606.13;2288299;70;20321;-80
2021/01/14 11:12:06;;;;;;;2.42;2.22;;;;;;;1.39;88.48;99600.22;2293142;70;20298;-79
2021/01/14 11:15:08;;;;;;;2.60;2.36;;;;;;;1.44;88.36;99602.97;2294104;70;20313;-81
2021/01/14 11:18:11;;;;;;;2.58;2.34;;;;;;;1.48;88.20;99599.69;2295094;67;164615;-80
2021/01/14 11:21:15;;;;;;;4.45;3.04;;;;;;;1.58;88.31;99599.19;2296644;69;20379;-82
2021/01/14 11:24:17;;;;;;;2.49;1.83;;;;;;;1.69;88.20;99597.00;2297336;70;20329;-80
2021/01/14 11:27:20;;;;;;;3.95;1.79;;;;;;;1.74;87.79;99592.91;2295033;70;20371;-79
2021/01/14 11:30:25;;;;;;;2.88;1.74;;;;;;;1.74;87.43;99603.13;2277811;69;1011649;-79
2021/01/14 11:33:27;;;;;;;4.01;2.25;;;;;;;1.74;86.93;99605.69;2284969;70;20332;-80
2021/01/14 11:36:29;;;;;;;2.53;1.92;;;;;;;1.72;86.61;99602.22;2287149;70;20287;-81
2021/01/14 11:39:30;;;;;;;2.10;1.58;;;;;;;1.70;86.28;99597.06;2280150;70;20358;-80
2021/01/14 11:42:32;;;;;;;2.41;1.96;;;;;;;1.71;86.21;99597.94;2286781;70;20291;-79
2021/01/14 11:45:34;;;;;;;2.01;1.51;;;;;;;1.75;86.40;99603.19;2275254;70;1013991;-80
2021/01/14 11:48:35;;;;;;;2.15;1.50;;;;;;;1.76;86.21;99592.13;2286118;70;20793;-79
2021/01/14 11:51:48;;;;;;;1.65;1.55;;;;;;;1.74;85.90;99591.22;2284949;70;20333;-78
2021/01/14 11:54:51;;;;;;;2.05;1.42;;;;;;;1.69;85.63;99595.31;2283954;70;20311;-78
2021/01/14 11:57:52;;;;;;;1.81;1.60;;;;;;;1.66;85.67;99596.91;2284690;70;20713;-80
2021/01/14 12:00:54;;;;;;;1.67;1.41;;;;;;;1.62;85.65;99590.81;2289352;67;24306;-79
2021/01/14 12:03:56;;;;;;;1.88;1.60;;;;;;;1.62;85.83;99595.06;2283456;70;20310;-78
2021/01/14 12:06:57;;;;;;;1.98;1.77;;;;;;;1.67;86.16;99589.28;2284606;70;20329;-78
2021/01/14 12:09:59;;;;;;;3.31;2.06;;;;;;;1.71;86.25;99592.81;2283853;70;20279;-78
2021/01/14 12:13:01;;;;;;;11.05;6.81;;;;;;;1.75;86.45;99587.84;2283497;70;20293;-76
2021/01/14 12:16:03;;;;;;;7.22;5.24;;;;;;;1.77;86.28;99585.31;2281440;67;22341;-77
2021/01/14 12:19:05;;;;;;;4.65;3.17;;;;;;;1.77;86.21;99581.06;2277726;70;20294;-76
2021/01/14 12:22:07;;;;;;;5.51;2.64;;;;;;;1.75;86.02;99581.84;2276711;70;20299;-76
2021/01/14 12:25:11;;;;;;;4.46;2.50;;;;;;;1.73;85.93;99578.38;2277176;70;21035;-76
2021/01/14 12:28:13;;;;;;;4.71;2.47;;;;;;;1.70;85.92;99570.59;2277729;70;20790;-77
2021/01/14 12:31:14;;;;;;;3.34;1.69;;;;;;;1.66;85.82;99566.19;2278658;66;20309;-77
2021/01/14 12:34:16;;;;;;;4.63;1.98;;;;;;;1.62;85.93;99572.91;2282823;70;20293;-77
2021/01/14 12:37:18;;;;;;;3.34;2.31;;;;;;;1.57;85.42;99563.31;2284720;70;20341;-78
2021/01/14 12:40:19;;;;;;;4.66;2.40;;;;;;;1.55;85.03;99554.72;2283714;70;20295;-78
2021/01/14 12:43:21;;;;;;;2.67;2.03;;;;;;;1.47;84.83;99554.47;2283280;70;20306;-78
2021/01/14 12:46:33;;;;;;;1.70;1.60;;;;;;;1.45;85.01;99553.53;2282205;67;23280;-78
2021/01/14 12:49:35;;;;;;;2.29;1.81;;;;;;;1.39;84.92;99545.63;2283433;70;20417;-78
2021/01/14 12:52:36;;;;;;;0.82;0.82;;;;;;;1.38;85.19;99543.91;2283379;70;20724;-77
2021/01/14 12:55:38;;;;;;;0.69;0.69;;;;;;;1.33;85.10;99545.44;2283541;70;20191;-77
2021/01/14 12:58:40;;;;;;;1.16;0.90;;;;;;;1.29;85.09;99533.38;2282943;70;20282;-76
2021/01/14 13:01:41;;;;;;;0.88;0.60;;;;;;;1.26;85.11;99530.69;2284319;67;22347;-77
2021/01/14 13:04:43;;;;;;;1.89;0.63;;;;;;;1.24;85.29;99525.50;2283699;70;20302;-77
2021/01/14 13:07:45;;;;;;;1.46;0.50;;;;;;;1.25;85.45;99524.69;2286970;70;20282;-78
2021/01/14 13:10:46;;;;;;;1.54;0.80;;;;;;;1.25;85.39;99527.25;2284168;70;20419;-77
2021/01/14 13:13:48;;;;;;;0.99;0.68;;;;;;;1.21;85.34;99525.41;2282666;70;20329;-78
2021/01/14 13:16:50;;;;;;;0.71;0.60;;;;;;;1.14;85.31;99519.22;2283060;68;26457;-78
2021/01/14 13:19:52;;;;;;;0.44;0.44;;;;;;;1.12;85.51;99512.31;2284673;70;20309;-77
2021/01/14 13:22:53;;;;;;;1.49;0.61;;;;;;;1.15;85.69;99507.31;2283338;70;20317;-77
2021/01/14 13:25:55;;;;;;;0.82;0.70;;;;;;;1.15;85.66;99505.63;2283714;70;21059;-77
2021/01/14 13:28:57;;;;;;;0.64;0.60;;;;;;;1.13;85.72;99491.91;2282381;70;20297;-78
2021/01/14 13:31:59;;;;;;;0.94;0.60;;;;;;;1.19;85.69;99496.38;2282481;67;34019;-77
2021/01/14 13:35:01;;;;;;;0.99;0.50;;;;;;;1.21;85.70;99489.63;2282962;70;20286;-78
2021/01/14 13:38:02;;;;;;;0.64;0.52;;;;;;;1.22;85.53;99488.78;2283971;70;20302;-77
2021/01/14 13:41:04;;;;;;;0.80;0.80;;;;;;;1.25;85.46;99490.56;2282422;70;20282;-78
2021/01/14 13:44:07;;;;;;;1.77;0.94;;;;;;;1.21;85.32;99487.06;2284024;70;20314;-79
2021/01/14 13:47:12;;;;;;;0.74;0.74;;;;;;;1.24;85.63;99488.84;2284082;67;22232;-79
2021/01/14 13:50:14;;;;;;;0.70;0.70;;;;;;;1.27;85.76;99486.41;2285365;70;20331;-80
2021/01/14 13:53:15;;;;;;;0.60;0.60;;;;;;;1.32;85.75;99490.84;2291196;70;20825;-81
2021/01/14 13:56:22;;;;;;;0.50;0.50;;;;;;;1.26;85.27;99488.09;2286302;70;20298;-78
2021/01/14 13:59:24;;;;;;;1.02;0.60;;;;;;;1.29;85.41;99484.78;2284805;70;20337;-80
2021/01/14 14:02:26;;;;;;;0.50;0.50;;;;;;;1.26;85.17;99485.53;2285231;67;49354;-79
2021/01/14 14:05:33;;;;;;;0.55;0.50;;;;;;;1.25;85.24;99478.66;2290891;70;20194;-80
2021/01/14 14:08:35;;;;;;;0.57;0.50;;;;;;;1.22;84.94;99476.00;2285766;70;20341;-78
2021/01/14 14:11:37;;;;;;;0.56;0.56;;;;;;;1.15;84.66;99471.50;2288645;70;20327;-79
2021/01/14 14:14:39;;;;;;;1.06;0.40;;;;;;;1.10;84.70;99468.81;2290957;70;20329;-80
2021/01/14 14:17:41;;;;;;;0.40;0.40;;;;;;;1.07;84.78;99471.22;2288982;67;24816;-80
2021/01/14 14:20:44;;;;;;;0.40;0.40;;;;;;;1.08;84.89;99474.69;2288441;70;20324;-80
2021/01/14 14:23:47;;;;;;;0.52;0.50;;;;;;;1.10;85.11;99468.81;2289195;70;20732;-81
2021/01/14 14:26:53;;;;;;;0.50;0.40;;;;;;;1.10;85.25;99461.13;2294645;70;20386;-81
2021/01/14 14:29:55;;;;;;;0.43;0.43;;;;;;;1.08;84.98;99467.88;2298758;70;20298;-81
2021/01/14 14:32:57;;;;;;;0.40;0.40;;;;;;;1.08;85.28;99470.44;2294378;67;23630;-81
2021/01/14 14:35:58;;;;;;;0.98;0.59;;;;;;;1.09;85.56;99471.31;2285267;70;20853;-79
2021/01/14 14:39:00;;;;;;;1.73;0.40;;;;;;;1.09;85.56;99463.66;2284416;70;20661;-79